sensor_id;sensor_type;location;lat;lon;timestamp;P1;durP1;ratioP1;P2;durP2;ratioP2
63005;SDS011;53704;52.532;6.426;2024-01-07T00:01:11;24.48;;;16.08;;
63005;SDS011;53704;52.532;6.426;2024-01-07T00:03:37;25.80;;;17.23;;
63005;SDS011;53704;52.532;6.426;2024-01-07T00:06:05;24.98;;;17.13;;
63005;SDS011;53704;52.532;6.426;2024-01-07T00:08:31;22.42;;;16.83;;
63005;SDS011;53704;52.532;6.426;2024-01-07T00:10:56;27.42;;;18.83;;
63005;SDS011;53704;52.532;6.426;2024-01-07T00:13:21;26.73;;;18.20;;
63005;SDS011;53704;52.532;6.426;2024-01-07T00:15:47;24.80;;;17.13;;
63005;SDS011;53704;52.532;6.426;2024-01-07T00:18:12;22.10;;;17.10;;
63005;SDS011;53704;52.532;6.426;2024-01-07T00:20:38;23.48;;;18.17;;
63005;SDS011;53704;52.532;6.426;2024-01-07T00:23:03;25.70;;;17.70;;
63005;SDS011;53704;52.532;6.426;2024-01-07T00:25:29;22.88;;;17.33;;
63005;SDS011;53704;52.532;6.426;2024-01-07T00:27:54;27.60;;;17.85;;
63005;SDS011;53704;52.532;6.426;2024-01-07T00:30:20;23.17;;;17.05;;
63005;SDS011;53704;52.532;6.426;2024-01-07T00:32:46;24.85;;;18.50;;
63005;SDS011;53704;52.532;6.426;2024-01-07T00:35:11;28.67;;;17.70;;
63005;SDS011;53704;52.532;6.426;2024-01-07T00:37:37;26.08;;;17.63;;
63005;SDS011;53704;52.532;6.426;2024-01-07T00:40:03;25.20;;;17.77;;
63005;SDS011;53704;52.532;6.426;2024-01-07T00:42:29;21.48;;;17.08;;
63005;SDS011;53704;52.532;6.426;2024-01-07T00:44:54;26.92;;;18.40;;
63005;SDS011;53704;52.532;6.426;2024-01-07T00:47:20;23.83;;;16.50;;
63005;SDS011;53704;52.532;6.426;2024-01-07T00:49:45;20.25;;;16.33;;
63005;SDS011;53704;52.532;6.426;2024-01-07T00:52:10;28.17;;;17.75;;
63005;SDS011;53704;52.532;6.426;2024-01-07T00:54:36;31.13;;;18.45;;
63005;SDS011;53704;52.532;6.426;2024-01-07T00:57:01;26.48;;;18.10;;
63005;SDS011;53704;52.532;6.426;2024-01-07T00:59:30;27.60;;;19.65;;
63005;SDS011;53704;52.532;6.426;2024-01-07T01:01:56;28.67;;;18.17;;
63005;SDS011;53704;52.532;6.426;2024-01-07T01:04:22;25.57;;;17.07;;
63005;SDS011;53704;52.532;6.426;2024-01-07T01:06:47;29.30;;;18.88;;
63005;SDS011;53704;52.532;6.426;2024-01-07T01:09:13;22.38;;;17.08;;
63005;SDS011;53704;52.532;6.426;2024-01-07T01:11:38;24.05;;;17.20;;
63005;SDS011;53704;52.532;6.426;2024-01-07T01:14:04;22.23;;;16.40;;
63005;SDS011;53704;52.532;6.426;2024-01-07T01:16:29;19.98;;;16.00;;
63005;SDS011;53704;52.532;6.426;2024-01-07T01:18:54;23.67;;;16.10;;
63005;SDS011;53704;52.532;6.426;2024-01-07T01:21:20;28.20;;;18.27;;
63005;SDS011;53704;52.532;6.426;2024-01-07T01:23:46;25.48;;;16.00;;
63005;SDS011;53704;52.532;6.426;2024-01-07T01:26:12;22.65;;;16.30;;
63005;SDS011;53704;52.532;6.426;2024-01-07T01:28:37;26.17;;;16.70;;
63005;SDS011;53704;52.532;6.426;2024-01-07T01:31:03;25.95;;;17.35;;
63005;SDS011;53704;52.532;6.426;2024-01-07T01:33:28;23.80;;;17.13;;
63005;SDS011;53704;52.532;6.426;2024-01-07T01:35:54;26.38;;;18.85;;
63005;SDS011;53704;52.532;6.426;2024-01-07T01:38:19;23.95;;;17.92;;
63005;SDS011;53704;52.532;6.426;2024-01-07T01:40:50;20.70;;;16.33;;
63005;SDS011;53704;52.532;6.426;2024-01-07T01:43:25;22.83;;;16.23;;
63005;SDS011;53704;52.532;6.426;2024-01-07T01:45:52;18.75;;;14.80;;
63005;SDS011;53704;52.532;6.426;2024-01-07T01:48:18;24.60;;;15.73;;
63005;SDS011;53704;52.532;6.426;2024-01-07T01:50:44;21.92;;;14.50;;
63005;SDS011;53704;52.532;6.426;2024-01-07T01:53:11;32.70;;;15.93;;
63005;SDS011;53704;52.532;6.426;2024-01-07T01:55:37;23.45;;;16.65;;
63005;SDS011;53704;52.532;6.426;2024-01-07T01:58:02;19.48;;;14.20;;
63005;SDS011;53704;52.532;6.426;2024-01-07T02:00:29;20.45;;;14.35;;
63005;SDS011;53704;52.532;6.426;2024-01-07T02:02:55;26.17;;;13.77;;
63005;SDS011;53704;52.532;6.426;2024-01-07T02:05:21;19.45;;;13.93;;
63005;SDS011;53704;52.532;6.426;2024-01-07T02:07:47;20.30;;;12.70;;
63005;SDS011;53704;52.532;6.426;2024-01-07T02:10:13;19.98;;;12.82;;
63005;SDS011;53704;52.532;6.426;2024-01-07T02:12:39;17.13;;;11.45;;
63005;SDS011;53704;52.532;6.426;2024-01-07T02:15:04;13.88;;;11.27;;
63005;SDS011;53704;52.532;6.426;2024-01-07T02:17:30;15.20;;;11.60;;
63005;SDS011;53704;52.532;6.426;2024-01-07T02:19:56;14.50;;;10.77;;
63005;SDS011;53704;52.532;6.426;2024-01-07T02:22:21;13.25;;;11.27;;
63005;SDS011;53704;52.532;6.426;2024-01-07T02:24:47;15.98;;;11.32;;
63005;SDS011;53704;52.532;6.426;2024-01-07T02:27:12;14.95;;;10.73;;
63005;SDS011;53704;52.532;6.426;2024-01-07T02:29:38;12.07;;;10.10;;
63005;SDS011;53704;52.532;6.426;2024-01-07T02:32:03;13.25;;;10.38;;
63005;SDS011;53704;52.532;6.426;2024-01-07T02:34:29;11.90;;;10.20;;
63005;SDS011;53704;52.532;6.426;2024-01-07T02:36:54;12.43;;;10.95;;
63005;SDS011;53704;52.532;6.426;2024-01-07T02:39:20;11.85;;;9.63;;
63005;SDS011;53704;52.532;6.426;2024-01-07T02:41:45;11.25;;;9.85;;
63005;SDS011;53704;52.532;6.426;2024-01-07T02:44:11;10.98;;;9.85;;
63005;SDS011;53704;52.532;6.426;2024-01-07T02:46:36;12.45;;;11.20;;
63005;SDS011;53704;52.532;6.426;2024-01-07T02:49:02;15.77;;;10.45;;
63005;SDS011;53704;52.532;6.426;2024-01-07T02:51:27;12.48;;;11.10;;
63005;SDS011;53704;52.532;6.426;2024-01-07T02:53:52;16.80;;;11.80;;
63005;SDS011;53704;52.532;6.426;2024-01-07T02:56:18;15.65;;;11.25;;
63005;SDS011;53704;52.532;6.426;2024-01-07T02:58:43;14.90;;;10.73;;
63005;SDS011;53704;52.532;6.426;2024-01-07T03:01:09;17.52;;;10.68;;
63005;SDS011;53704;52.532;6.426;2024-01-07T03:03:35;13.27;;;10.45;;
63005;SDS011;53704;52.532;6.426;2024-01-07T03:06:00;15.82;;;10.15;;
63005;SDS011;53704;52.532;6.426;2024-01-07T03:08:26;10.65;;;9.65;;
63005;SDS011;53704;52.532;6.426;2024-01-07T03:10:52;12.85;;;10.25;;
63005;SDS011;53704;52.532;6.426;2024-01-07T03:13:18;11.52;;;10.25;;
63005;SDS011;53704;52.532;6.426;2024-01-07T03:15:44;12.82;;;9.90;;
63005;SDS011;53704;52.532;6.426;2024-01-07T03:18:09;11.85;;;9.93;;
63005;SDS011;53704;52.532;6.426;2024-01-07T03:20:34;14.02;;;10.00;;
63005;SDS011;53704;52.532;6.426;2024-01-07T03:23:00;21.05;;;11.30;;
63005;SDS011;53704;52.532;6.426;2024-01-07T03:25:26;12.25;;;9.43;;
63005;SDS011;53704;52.532;6.426;2024-01-07T03:27:51;11.02;;;9.93;;
63005;SDS011;53704;52.532;6.426;2024-01-07T03:30:17;16.65;;;10.75;;
63005;SDS011;53704;52.532;6.426;2024-01-07T03:32:42;13.77;;;9.93;;
63005;SDS011;53704;52.532;6.426;2024-01-07T03:35:08;13.15;;;10.40;;
63005;SDS011;53704;52.532;6.426;2024-01-07T03:37:34;17.02;;;10.65;;
63005;SDS011;53704;52.532;6.426;2024-01-07T03:39:59;12.90;;;9.68;;
63005;SDS011;53704;52.532;6.426;2024-01-07T03:42:25;14.15;;;11.07;;
63005;SDS011;53704;52.532;6.426;2024-01-07T03:44:50;13.98;;;10.88;;
63005;SDS011;53704;52.532;6.426;2024-01-07T03:47:16;15.35;;;11.65;;
63005;SDS011;53704;52.532;6.426;2024-01-07T03:49:41;13.65;;;10.73;;
63005;SDS011;53704;52.532;6.426;2024-01-07T03:52:07;16.27;;;11.00;;
63005;SDS011;53704;52.532;6.426;2024-01-07T03:54:33;18.20;;;11.13;;
63005;SDS011;53704;52.532;6.426;2024-01-07T03:56:58;14.18;;;11.40;;
63005;SDS011;53704;52.532;6.426;2024-01-07T03:59:24;11.63;;;9.43;;
63005;SDS011;53704;52.532;6.426;2024-01-07T04:01:50;12.68;;;9.77;;
63005;SDS011;53704;52.532;6.426;2024-01-07T04:04:18;12.45;;;8.68;;
63005;SDS011;53704;52.532;6.426;2024-01-07T04:06:43;11.60;;;8.35;;
63005;SDS011;53704;52.532;6.426;2024-01-07T04:09:09;12.33;;;8.77;;
63005;SDS011;53704;52.532;6.426;2024-01-07T04:11:40;12.43;;;9.48;;
63005;SDS011;53704;52.532;6.426;2024-01-07T04:14:07;10.10;;;8.43;;
63005;SDS011;53704;52.532;6.426;2024-01-07T04:16:33;9.85;;;8.75;;
63005;SDS011;53704;52.532;6.426;2024-01-07T04:18:58;10.32;;;9.20;;
63005;SDS011;53704;52.532;6.426;2024-01-07T04:21:23;10.57;;;9.45;;
63005;SDS011;53704;52.532;6.426;2024-01-07T04:23:49;11.80;;;9.63;;
63005;SDS011;53704;52.532;6.426;2024-01-07T04:26:14;9.30;;;8.40;;
63005;SDS011;53704;52.532;6.426;2024-01-07T04:28:43;11.02;;;9.25;;
63005;SDS011;53704;52.532;6.426;2024-01-07T04:31:08;12.73;;;10.35;;
63005;SDS011;53704;52.532;6.426;2024-01-07T04:33:34;10.88;;;9.48;;
63005;SDS011;53704;52.532;6.426;2024-01-07T04:35:59;12.15;;;10.13;;
63005;SDS011;53704;52.532;6.426;2024-01-07T04:38:26;12.65;;;10.00;;
63005;SDS011;53704;52.532;6.426;2024-01-07T04:40:51;11.20;;;9.90;;
63005;SDS011;53704;52.532;6.426;2024-01-07T04:43:20;11.98;;;10.80;;
63005;SDS011;53704;52.532;6.426;2024-01-07T04:45:46;12.95;;;9.45;;
63005;SDS011;53704;52.532;6.426;2024-01-07T04:48:12;14.00;;;9.65;;
63005;SDS011;53704;52.532;6.426;2024-01-07T04:50:39;11.13;;;9.75;;
63005;SDS011;53704;52.532;6.426;2024-01-07T04:53:05;13.75;;;10.32;;
63005;SDS011;53704;52.532;6.426;2024-01-07T04:55:30;11.45;;;9.93;;
63005;SDS011;53704;52.532;6.426;2024-01-07T04:57:56;12.40;;;9.93;;
63005;SDS011;53704;52.532;6.426;2024-01-07T05:00:21;12.52;;;10.35;;
63005;SDS011;53704;52.532;6.426;2024-01-07T05:02:47;10.82;;;9.82;;
63005;SDS011;53704;52.532;6.426;2024-01-07T05:05:12;10.60;;;9.50;;
63005;SDS011;53704;52.532;6.426;2024-01-07T05:07:38;13.50;;;10.40;;
63005;SDS011;53704;52.532;6.426;2024-01-07T05:10:03;12.25;;;9.85;;
63005;SDS011;53704;52.532;6.426;2024-01-07T05:12:30;13.43;;;10.85;;
63005;SDS011;53704;52.532;6.426;2024-01-07T05:14:55;10.85;;;9.05;;
63005;SDS011;53704;52.532;6.426;2024-01-07T05:17:20;16.02;;;10.90;;
63005;SDS011;53704;52.532;6.426;2024-01-07T05:19:46;11.40;;;9.57;;
63005;SDS011;53704;52.532;6.426;2024-01-07T05:22:11;11.52;;;9.82;;
63005;SDS011;53704;52.532;6.426;2024-01-07T05:24:37;17.15;;;10.45;;
63005;SDS011;53704;52.532;6.426;2024-01-07T05:27:05;10.85;;;9.77;;
63005;SDS011;53704;52.532;6.426;2024-01-07T05:29:31;15.98;;;10.00;;
63005;SDS011;53704;52.532;6.426;2024-01-07T05:32:00;11.30;;;9.90;;
63005;SDS011;53704;52.532;6.426;2024-01-07T05:34:27;10.90;;;9.77;;
63005;SDS011;53704;52.532;6.426;2024-01-07T05:36:53;15.00;;;11.18;;
63005;SDS011;53704;52.532;6.426;2024-01-07T05:39:19;14.98;;;10.20;;
63005;SDS011;53704;52.532;6.426;2024-01-07T05:41:44;11.25;;;9.20;;
63005;SDS011;53704;52.532;6.426;2024-01-07T05:44:10;9.95;;;9.00;;
63005;SDS011;53704;52.532;6.426;2024-01-07T05:46:40;10.20;;;9.20;;
63005;SDS011;53704;52.532;6.426;2024-01-07T05:49:05;9.23;;;8.13;;
63005;SDS011;53704;52.532;6.426;2024-01-07T05:51:31;9.00;;;6.97;;
63005;SDS011;53704;52.532;6.426;2024-01-07T05:53:56;10.50;;;7.57;;
63005;SDS011;53704;52.532;6.426;2024-01-07T05:56:22;10.80;;;7.68;;
63005;SDS011;53704;52.532;6.426;2024-01-07T05:58:49;7.93;;;7.22;;
63005;SDS011;53704;52.532;6.426;2024-01-07T06:01:20;9.93;;;7.68;;
63005;SDS011;53704;52.532;6.426;2024-01-07T06:03:46;8.13;;;7.32;;
63005;SDS011;53704;52.532;6.426;2024-01-07T06:06:15;7.85;;;6.63;;
63005;SDS011;53704;52.532;6.426;2024-01-07T06:08:41;7.88;;;7.00;;
63005;SDS011;53704;52.532;6.426;2024-01-07T06:11:07;8.20;;;7.35;;
63005;SDS011;53704;52.532;6.426;2024-01-07T06:13:33;10.55;;;7.55;;
63005;SDS011;53704;52.532;6.426;2024-01-07T06:15:58;8.65;;;7.97;;
63005;SDS011;53704;52.532;6.426;2024-01-07T06:18:24;9.55;;;8.52;;
63005;SDS011;53704;52.532;6.426;2024-01-07T06:20:49;9.68;;;8.70;;
63005;SDS011;53704;52.532;6.426;2024-01-07T06:23:15;9.50;;;8.15;;
63005;SDS011;53704;52.532;6.426;2024-01-07T06:25:40;10.60;;;8.82;;
63005;SDS011;53704;52.532;6.426;2024-01-07T06:28:05;10.38;;;8.45;;
63005;SDS011;53704;52.532;6.426;2024-01-07T06:30:31;9.38;;;8.07;;
63005;SDS011;53704;52.532;6.426;2024-01-07T06:32:56;11.80;;;8.73;;
63005;SDS011;53704;52.532;6.426;2024-01-07T06:35:22;11.77;;;7.63;;
63005;SDS011;53704;52.532;6.426;2024-01-07T06:37:47;8.02;;;5.97;;
63005;SDS011;53704;52.532;6.426;2024-01-07T06:40:13;7.88;;;6.40;;
63005;SDS011;53704;52.532;6.426;2024-01-07T06:42:38;10.23;;;6.68;;
63005;SDS011;53704;52.532;6.426;2024-01-07T06:45:04;7.07;;;6.40;;
63005;SDS011;53704;52.532;6.426;2024-01-07T06:47:30;7.22;;;6.43;;
63005;SDS011;53704;52.532;6.426;2024-01-07T06:49:55;13.27;;;6.95;;
63005;SDS011;53704;52.532;6.426;2024-01-07T06:52:21;9.80;;;7.88;;
63005;SDS011;53704;52.532;6.426;2024-01-07T06:54:46;11.73;;;7.20;;
63005;SDS011;53704;52.532;6.426;2024-01-07T06:57:12;7.97;;;6.93;;
63005;SDS011;53704;52.532;6.426;2024-01-07T06:59:37;7.82;;;6.70;;
63005;SDS011;53704;52.532;6.426;2024-01-07T07:02:03;10.52;;;8.13;;
63005;SDS011;53704;52.532;6.426;2024-01-07T07:04:28;8.02;;;7.22;;
63005;SDS011;53704;52.532;6.426;2024-01-07T07:06:54;7.30;;;6.40;;
63005;SDS011;53704;52.532;6.426;2024-01-07T07:09:19;9.80;;;6.43;;
63005;SDS011;53704;52.532;6.426;2024-01-07T07:11:44;9.23;;;7.85;;
63005;SDS011;53704;52.532;6.426;2024-01-07T07:14:10;9.52;;;5.75;;
63005;SDS011;53704;52.532;6.426;2024-01-07T07:16:35;6.53;;;5.85;;
63005;SDS011;53704;52.532;6.426;2024-01-07T07:19:00;6.47;;;5.83;;
63005;SDS011;53704;52.532;6.426;2024-01-07T07:21:26;5.47;;;4.93;;
63005;SDS011;53704;52.532;6.426;2024-01-07T07:23:52;4.97;;;3.92;;
63005;SDS011;53704;52.532;6.426;2024-01-07T07:26:18;3.80;;;3.50;;
63005;SDS011;53704;52.532;6.426;2024-01-07T07:28:43;4.60;;;3.72;;
63005;SDS011;53704;52.532;6.426;2024-01-07T07:31:10;5.63;;;3.85;;
63005;SDS011;53704;52.532;6.426;2024-01-07T07:33:38;4.25;;;3.45;;
63005;SDS011;53704;52.532;6.426;2024-01-07T07:36:04;4.68;;;3.45;;
63005;SDS011;53704;52.532;6.426;2024-01-07T07:38:30;5.93;;;3.22;;
63005;SDS011;53704;52.532;6.426;2024-01-07T07:40:55;3.85;;;3.40;;
63005;SDS011;53704;52.532;6.426;2024-01-07T07:43:21;4.60;;;2.83;;
63005;SDS011;53704;52.532;6.426;2024-01-07T07:45:46;3.57;;;3.13;;
63005;SDS011;53704;52.532;6.426;2024-01-07T07:48:12;3.20;;;2.90;;
63005;SDS011;53704;52.532;6.426;2024-01-07T07:50:37;5.38;;;3.00;;
63005;SDS011;53704;52.532;6.426;2024-01-07T07:53:03;5.05;;;3.00;;
63005;SDS011;53704;52.532;6.426;2024-01-07T07:55:28;3.28;;;3.08;;
63005;SDS011;53704;52.532;6.426;2024-01-07T07:57:54;6.95;;;3.10;;
63005;SDS011;53704;52.532;6.426;2024-01-07T08:00:19;8.30;;;3.20;;
63005;SDS011;53704;52.532;6.426;2024-01-07T08:02:45;5.95;;;3.35;;
63005;SDS011;53704;52.532;6.426;2024-01-07T08:05:10;7.90;;;2.95;;
63005;SDS011;53704;52.532;6.426;2024-01-07T08:07:36;2.85;;;2.55;;
63005;SDS011;53704;52.532;6.426;2024-01-07T08:10:01;3.53;;;2.70;;
63005;SDS011;53704;52.532;6.426;2024-01-07T08:12:28;5.60;;;2.60;;
63005;SDS011;53704;52.532;6.426;2024-01-07T08:14:53;3.17;;;2.88;;
63005;SDS011;53704;52.532;6.426;2024-01-07T08:17:18;2.75;;;2.55;;
63005;SDS011;53704;52.532;6.426;2024-01-07T08:19:44;5.68;;;2.60;;
63005;SDS011;53704;52.532;6.426;2024-01-07T08:22:09;4.50;;;3.15;;
63005;SDS011;53704;52.532;6.426;2024-01-07T08:24:35;5.07;;;2.83;;
63005;SDS011;53704;52.532;6.426;2024-01-07T08:27:01;2.55;;;2.35;;
63005;SDS011;53704;52.532;6.426;2024-01-07T08:29:28;7.60;;;2.67;;
63005;SDS011;53704;52.532;6.426;2024-01-07T08:31:53;5.47;;;2.55;;
63005;SDS011;53704;52.532;6.426;2024-01-07T08:34:19;4.63;;;2.35;;
63005;SDS011;53704;52.532;6.426;2024-01-07T08:36:44;2.83;;;2.60;;
63005;SDS011;53704;52.532;6.426;2024-01-07T08:39:09;4.53;;;2.63;;
63005;SDS011;53704;52.532;6.426;2024-01-07T08:41:36;6.05;;;2.70;;
63005;SDS011;53704;52.532;6.426;2024-01-07T08:44:01;3.47;;;2.80;;
63005;SDS011;53704;52.532;6.426;2024-01-07T08:46:27;3.58;;;2.70;;
63005;SDS011;53704;52.532;6.426;2024-01-07T08:48:52;3.05;;;2.67;;
63005;SDS011;53704;52.532;6.426;2024-01-07T08:51:18;3.38;;;2.47;;
63005;SDS011;53704;52.532;6.426;2024-01-07T08:53:43;4.20;;;2.42;;
63005;SDS011;53704;52.532;6.426;2024-01-07T08:56:09;2.30;;;2.10;;
63005;SDS011;53704;52.532;6.426;2024-01-07T08:58:34;2.88;;;2.67;;
63005;SDS011;53704;52.532;6.426;2024-01-07T09:01:00;2.75;;;1.90;;
63005;SDS011;53704;52.532;6.426;2024-01-07T09:03:25;2.88;;;2.67;;
63005;SDS011;53704;52.532;6.426;2024-01-07T09:05:51;2.30;;;2.15;;
63005;SDS011;53704;52.532;6.426;2024-01-07T09:08:17;4.75;;;2.17;;
63005;SDS011;53704;52.532;6.426;2024-01-07T09:10:42;6.38;;;2.60;;
63005;SDS011;53704;52.532;6.426;2024-01-07T09:13:08;2.25;;;2.05;;
63005;SDS011;53704;52.532;6.426;2024-01-07T09:15:33;2.97;;;1.88;;
63005;SDS011;53704;52.532;6.426;2024-01-07T09:17:59;2.30;;;2.10;;
63005;SDS011;53704;52.532;6.426;2024-01-07T09:20:25;2.25;;;2.15;;
63005;SDS011;53704;52.532;6.426;2024-01-07T09:22:50;3.92;;;1.98;;
63005;SDS011;53704;52.532;6.426;2024-01-07T09:25:15;2.00;;;1.83;;
63005;SDS011;53704;52.532;6.426;2024-01-07T09:27:41;2.33;;;2.08;;
63005;SDS011;53704;52.532;6.426;2024-01-07T09:30:08;4.27;;;2.20;;
63005;SDS011;53704;52.532;6.426;2024-01-07T09:32:35;2.30;;;2.08;;
63005;SDS011;53704;52.532;6.426;2024-01-07T09:35:01;1.85;;;1.75;;
63005;SDS011;53704;52.532;6.426;2024-01-07T09:37:27;6.00;;;1.90;;
63005;SDS011;53704;52.532;6.426;2024-01-07T09:39:52;5.63;;;1.77;;
63005;SDS011;53704;52.532;6.426;2024-01-07T09:42:18;3.30;;;1.65;;
63005;SDS011;53704;52.532;6.426;2024-01-07T09:44:44;2.08;;;1.95;;
63005;SDS011;53704;52.532;6.426;2024-01-07T09:47:10;2.80;;;2.10;;
63005;SDS011;53704;52.532;6.426;2024-01-07T09:49:38;1.50;;;1.40;;
63005;SDS011;53704;52.532;6.426;2024-01-07T09:52:04;1.67;;;1.55;;
63005;SDS011;53704;52.532;6.426;2024-01-07T09:54:30;2.10;;;1.90;;
63005;SDS011;53704;52.532;6.426;2024-01-07T09:57:02;2.17;;;1.75;;
63005;SDS011;53704;52.532;6.426;2024-01-07T09:59:29;2.28;;;1.50;;
63005;SDS011;53704;52.532;6.426;2024-01-07T10:01:55;1.98;;;1.88;;
63005;SDS011;53704;52.532;6.426;2024-01-07T10:04:22;2.70;;;1.80;;
63005;SDS011;53704;52.532;6.426;2024-01-07T10:06:48;1.73;;;1.63;;
63005;SDS011;53704;52.532;6.426;2024-01-07T10:09:14;4.00;;;1.80;;
63005;SDS011;53704;52.532;6.426;2024-01-07T10:11:40;2.33;;;2.05;;
63005;SDS011;53704;52.532;6.426;2024-01-07T10:14:06;1.40;;;1.30;;
63005;SDS011;53704;52.532;6.426;2024-01-07T10:16:32;2.60;;;1.35;;
63005;SDS011;53704;52.532;6.426;2024-01-07T10:18:58;1.55;;;1.50;;
63005;SDS011;53704;52.532;6.426;2024-01-07T10:21:23;4.40;;;1.47;;
63005;SDS011;53704;52.532;6.426;2024-01-07T10:23:49;2.08;;;1.50;;
63005;SDS011;53704;52.532;6.426;2024-01-07T10:26:15;1.40;;;1.30;;
63005;SDS011;53704;52.532;6.426;2024-01-07T10:28:40;1.70;;;1.55;;
63005;SDS011;53704;52.532;6.426;2024-01-07T10:31:05;1.33;;;1.20;;
63005;SDS011;53704;52.532;6.426;2024-01-07T10:33:31;1.10;;;1.00;;
63005;SDS011;53704;52.532;6.426;2024-01-07T10:36:01;2.00;;;1.50;;
63005;SDS011;53704;52.532;6.426;2024-01-07T10:38:30;2.50;;;1.40;;
63005;SDS011;53704;52.532;6.426;2024-01-07T10:40:56;2.42;;;1.60;;
63005;SDS011;53704;52.532;6.426;2024-01-07T10:43:24;2.08;;;1.38;;
63005;SDS011;53704;52.532;6.426;2024-01-07T10:45:54;5.72;;;1.85;;
63005;SDS011;53704;52.532;6.426;2024-01-07T10:48:20;1.40;;;1.30;;
63005;SDS011;53704;52.532;6.426;2024-01-07T10:50:47;1.42;;;1.33;;
63005;SDS011;53704;52.532;6.426;2024-01-07T10:53:23;1.60;;;1.50;;
63005;SDS011;53704;52.532;6.426;2024-01-07T10:55:54;1.50;;;1.40;;
63005;SDS011;53704;52.532;6.426;2024-01-07T10:58:24;2.17;;;1.52;;
63005;SDS011;53704;52.532;6.426;2024-01-07T11:00:51;2.00;;;1.60;;
63005;SDS011;53704;52.532;6.426;2024-01-07T11:03:24;1.70;;;1.60;;
63005;SDS011;53704;52.532;6.426;2024-01-07T11:06:13;1.85;;;1.40;;
63005;SDS011;53704;52.532;6.426;2024-01-07T11:11:30;4.22;;;1.42;;
63005;SDS011;53704;52.532;6.426;2024-01-07T11:14:00;4.25;;;1.45;;
63005;SDS011;53704;52.532;6.426;2024-01-07T11:19:05;1.27;;;1.15;;
63005;SDS011;53704;52.532;6.426;2024-01-07T11:21:30;2.88;;;1.45;;
63005;SDS011;53704;52.532;6.426;2024-01-07T11:23:56;3.58;;;1.38;;
63005;SDS011;53704;52.532;6.426;2024-01-07T11:26:21;2.97;;;2.75;;
63005;SDS011;53704;52.532;6.426;2024-01-07T11:28:51;5.78;;;2.50;;
63005;SDS011;53704;52.532;6.426;2024-01-07T11:34:04;1.83;;;1.05;;
63005;SDS011;53704;52.532;6.426;2024-01-07T11:36:30;1.58;;;1.48;;
63005;SDS011;53704;52.532;6.426;2024-01-07T11:38:56;1.40;;;1.05;;
63005;SDS011;53704;52.532;6.426;2024-01-07T11:41:22;3.15;;;1.52;;
63005;SDS011;53704;52.532;6.426;2024-01-07T11:43:57;3.42;;;1.30;;
63005;SDS011;53704;52.532;6.426;2024-01-07T11:46:25;1.15;;;1.00;;
63005;SDS011;53704;52.532;6.426;2024-01-07T11:48:54;1.40;;;1.25;;
63005;SDS011;53704;52.532;6.426;2024-01-07T11:51:30;8.30;;;1.77;;
63005;SDS011;53704;52.532;6.426;2024-01-07T11:53:57;2.42;;;1.33;;
63005;SDS011;53704;52.532;6.426;2024-01-07T11:56:24;2.53;;;1.35;;
63005;SDS011;53704;52.532;6.426;2024-01-07T11:58:51;1.35;;;1.23;;
63005;SDS011;53704;52.532;6.426;2024-01-07T12:01:16;4.15;;;1.90;;
63005;SDS011;53704;52.532;6.426;2024-01-07T12:03:43;2.13;;;1.75;;
63005;SDS011;53704;52.532;6.426;2024-01-07T12:06:10;2.13;;;1.30;;
63005;SDS011;53704;52.532;6.426;2024-01-07T12:08:42;3.25;;;1.85;;
63005;SDS011;53704;52.532;6.426;2024-01-07T12:11:08;3.35;;;1.50;;
63005;SDS011;53704;52.532;6.426;2024-01-07T12:13:36;7.25;;;1.45;;
63005;SDS011;53704;52.532;6.426;2024-01-07T12:16:02;2.33;;;1.60;;
63005;SDS011;53704;52.532;6.426;2024-01-07T12:18:29;2.45;;;1.58;;
63005;SDS011;53704;52.532;6.426;2024-01-07T12:20:55;1.48;;;1.20;;
63005;SDS011;53704;52.532;6.426;2024-01-07T12:23:27;6.13;;;1.45;;
63005;SDS011;53704;52.532;6.426;2024-01-07T12:25:53;1.00;;;1.00;;
63005;SDS011;53704;52.532;6.426;2024-01-07T12:28:19;2.10;;;1.30;;
63005;SDS011;53704;52.532;6.426;2024-01-07T12:30:45;3.40;;;1.20;;
63005;SDS011;53704;52.532;6.426;2024-01-07T12:33:15;3.28;;;1.55;;
63005;SDS011;53704;52.532;6.426;2024-01-07T12:35:47;2.83;;;1.50;;
63005;SDS011;53704;52.532;6.426;2024-01-07T12:38:13;5.72;;;2.53;;
63005;SDS011;53704;52.532;6.426;2024-01-07T12:40:38;3.25;;;1.30;;
63005;SDS011;53704;52.532;6.426;2024-01-07T12:43:07;2.15;;;1.20;;
63005;SDS011;53704;52.532;6.426;2024-01-07T12:45:33;1.60;;;1.50;;
63005;SDS011;53704;52.532;6.426;2024-01-07T12:47:58;4.88;;;1.48;;
63005;SDS011;53704;52.532;6.426;2024-01-07T12:50:27;1.33;;;1.20;;
63005;SDS011;53704;52.532;6.426;2024-01-07T12:52:54;1.17;;;1.10;;
63005;SDS011;53704;52.532;6.426;2024-01-07T12:55:20;7.40;;;1.88;;
63005;SDS011;53704;52.532;6.426;2024-01-07T12:57:45;1.83;;;1.25;;
63005;SDS011;53704;52.532;6.426;2024-01-07T13:00:11;2.63;;;1.30;;
63005;SDS011;53704;52.532;6.426;2024-01-07T13:02:37;5.40;;;1.52;;
63005;SDS011;53704;52.532;6.426;2024-01-07T13:05:02;1.63;;;1.52;;
63005;SDS011;53704;52.532;6.426;2024-01-07T13:07:28;2.28;;;1.02;;
63005;SDS011;53704;52.532;6.426;2024-01-07T13:09:53;1.73;;;1.58;;
63005;SDS011;53704;52.532;6.426;2024-01-07T13:12:19;4.78;;;1.20;;
63005;SDS011;53704;52.532;6.426;2024-01-07T13:14:44;4.63;;;1.75;;
63005;SDS011;53704;52.532;6.426;2024-01-07T13:17:12;1.35;;;1.05;;
63005;SDS011;53704;52.532;6.426;2024-01-07T13:19:37;3.28;;;1.33;;
63005;SDS011;53704;52.532;6.426;2024-01-07T13:22:03;1.13;;;1.13;;
63005;SDS011;53704;52.532;6.426;2024-01-07T13:24:28;1.75;;;1.15;;
63005;SDS011;53704;52.532;6.426;2024-01-07T13:26:54;2.20;;;1.30;;
63005;SDS011;53704;52.532;6.426;2024-01-07T13:29:19;2.63;;;1.63;;
63005;SDS011;53704;52.532;6.426;2024-01-07T13:31:45;7.97;;;1.60;;
63005;SDS011;53704;52.532;6.426;2024-01-07T13:34:10;5.00;;;1.90;;
63005;SDS011;53704;52.532;6.426;2024-01-07T13:36:36;1.52;;;1.35;;
63005;SDS011;53704;52.532;6.426;2024-01-07T13:39:01;1.83;;;1.52;;
63005;SDS011;53704;52.532;6.426;2024-01-07T13:41:27;1.73;;;1.63;;
63005;SDS011;53704;52.532;6.426;2024-01-07T13:43:57;1.70;;;1.52;;
63005;SDS011;53704;52.532;6.426;2024-01-07T13:46:22;1.88;;;1.48;;
63005;SDS011;53704;52.532;6.426;2024-01-07T13:48:50;3.53;;;1.73;;
63005;SDS011;53704;52.532;6.426;2024-01-07T13:51:16;4.47;;;2.10;;
63005;SDS011;53704;52.532;6.426;2024-01-07T13:53:43;5.22;;;2.13;;
63005;SDS011;53704;52.532;6.426;2024-01-07T13:56:10;10.02;;;3.60;;
63005;SDS011;53704;52.532;6.426;2024-01-07T13:58:36;2.17;;;1.40;;
63005;SDS011;53704;52.532;6.426;2024-01-07T14:01:02;8.18;;;1.98;;
63005;SDS011;53704;52.532;6.426;2024-01-07T14:03:28;1.98;;;1.80;;
63005;SDS011;53704;52.532;6.426;2024-01-07T14:05:55;1.90;;;1.80;;
63005;SDS011;53704;52.532;6.426;2024-01-07T14:08:21;3.22;;;2.13;;
63005;SDS011;53704;52.532;6.426;2024-01-07T14:10:46;3.97;;;2.28;;
63005;SDS011;53704;52.532;6.426;2024-01-07T14:13:12;3.63;;;2.10;;
63005;SDS011;53704;52.532;6.426;2024-01-07T14:15:37;8.35;;;7.22;;
63005;SDS011;53704;52.532;6.426;2024-01-07T14:18:02;9.48;;;3.85;;
63005;SDS011;53704;52.532;6.426;2024-01-07T14:20:28;3.42;;;2.38;;
63005;SDS011;53704;52.532;6.426;2024-01-07T14:22:54;4.70;;;4.30;;
63005;SDS011;53704;52.532;6.426;2024-01-07T14:25:19;3.47;;;3.17;;
63005;SDS011;53704;52.532;6.426;2024-01-07T14:27:45;4.13;;;2.75;;
63005;SDS011;53704;52.532;6.426;2024-01-07T14:30:11;4.97;;;2.75;;
63005;SDS011;53704;52.532;6.426;2024-01-07T14:32:38;5.55;;;2.55;;
63005;SDS011;53704;52.532;6.426;2024-01-07T14:35:04;7.78;;;2.55;;
63005;SDS011;53704;52.532;6.426;2024-01-07T14:37:30;4.45;;;3.47;;
63005;SDS011;53704;52.532;6.426;2024-01-07T14:39:55;5.45;;;4.55;;